sensor_id;sensor_type;location;lat;lon;timestamp;temperature;humidity
4964;DHT22;2497;47.410;9.740;2022-08-03T00:01:15;20.40;99.90
4964;DHT22;2497;47.410;9.740;2022-08-03T00:03:42;20.40;99.90
4964;DHT22;2497;47.410;9.740;2022-08-03T00:06:10;20.50;99.90
4964;DHT22;2497;47.410;9.740;2022-08-03T00:08:39;20.40;99.90
4964;DHT22;2497;47.410;9.740;2022-08-03T00:11:07;20.40;99.90
4964;DHT22;2497;47.410;9.740;2022-08-03T00:13:34;20.40;99.90
4964;DHT22;2497;47.410;9.740;2022-08-03T00:16:01;20.40;99.90
4964;DHT22;2497;47.410;9.740;2022-08-03T00:18:29;20.40;99.90
4964;DHT22;2497;47.410;9.740;2022-08-03T00:20:56;20.30;99.90
4964;DHT22;2497;47.410;9.740;2022-08-03T00:23:24;20.30;99.90
4964;DHT22;2497;47.410;9.740;2022-08-03T00:25:52;20.30;99.90
4964;DHT22;2497;47.410;9.740;2022-08-03T00:28:20;20.30;99.90
4964;DHT22;2497;47.410;9.740;2022-08-03T00:30:47;20.20;99.90
4964;DHT22;2497;47.410;9.740;2022-08-03T00:33:15;20.30;99.90
4964;DHT22;2497;47.410;9.740;2022-08-03T00:35:43;20.30;99.90
4964;DHT22;2497;47.410;9.740;2022-08-03T00:38:10;20.20;99.90
4964;DHT22;2497;47.410;9.740;2022-08-03T00:40:38;20.30;99.90
4964;DHT22;2497;47.410;9.740;2022-08-03T00:43:08;20.30;99.90
4964;DHT22;2497;47.410;9.740;2022-08-03T00:45:37;20.20;99.90
4964;DHT22;2497;47.410;9.740;2022-08-03T00:48:06;20.20;99.90
4964;DHT22;2497;47.410;9.740;2022-08-03T00:50:37;20.20;99.90
4964;DHT22;2497;47.410;9.740;2022-08-03T00:53:06;20.30;99.90
4964;DHT22;2497;47.410;9.740;2022-08-03T00:55:36;20.30;99.90
4964;DHT22;2497;47.410;9.740;2022-08-03T00:58:04;20.30;99.90
4964;DHT22;2497;47.410;9.740;2022-08-03T01:00:35;20.20;99.90
4964;DHT22;2497;47.410;9.740;2022-08-03T01:03:05;20.20;99.90
4964;DHT22;2497;47.410;9.740;2022-08-03T01:05:39;20.20;99.90
4964;DHT22;2497;47.410;9.740;2022-08-03T01:08:18;20.10;99.90
4964;DHT22;2497;47.410;9.740;2022-08-03T01:10:53;20.10;99.90
4964;DHT22;2497;47.410;9.740;2022-08-03T01:13:27;20.10;99.90
4964;DHT22;2497;47.410;9.740;2022-08-03T01:16:00;20.00;99.90
4964;DHT22;2497;47.410;9.740;2022-08-03T01:18:35;20.10;99.90
4964;DHT22;2497;47.410;9.740;2022-08-03T01:21:06;20.00;99.90
4964;DHT22;2497;47.410;9.740;2022-08-03T01:23:53;20.10;99.90
4964;DHT22;2497;47.410;9.740;2022-08-03T01:26:47;20.10;99.90
4964;DHT22;2497;47.410;9.740;2022-08-03T01:29:50;20.00;99.90
4964;DHT22;2497;47.410;9.740;2022-08-03T01:32:21;20.00;99.90
4964;DHT22;2497;47.410;9.740;2022-08-03T01:34:53;20.00;99.90
4964;DHT22;2497;47.410;9.740;2022-08-03T01:37:25;20.00;99.90
4964;DHT22;2497;47.410;9.740;2022-08-03T01:39:55;20.00;99.90
4964;DHT22;2497;47.410;9.740;2022-08-03T01:42:24;20.10;99.90
4964;DHT22;2497;47.410;9.740;2022-08-03T01:44:54;20.00;99.90
4964;DHT22;2497;47.410;9.740;2022-08-03T01:47:23;20.00;99.90
4964;DHT22;2497;47.410;9.740;2022-08-03T01:49:53;19.90;99.90
4964;DHT22;2497;47.410;9.740;2022-08-03T01:52:21;19.90;99.90
4964;DHT22;2497;47.410;9.740;2022-08-03T01:54:51;19.90;99.90
4964;DHT22;2497;47.410;9.740;2022-08-03T01:57:19;19.90;99.90
4964;DHT22;2497;47.410;9.740;2022-08-03T01:59:48;19.80;99.90
4964;DHT22;2497;47.410;9.740;2022-08-03T02:02:19;19.90;99.90
4964;DHT22;2497;47.410;9.740;2022-08-03T02:04:48;19.90;99.90
4964;DHT22;2497;47.410;9.740;2022-08-03T02:07:16;20.00;99.90
4964;DHT22;2497;47.410;9.740;2022-08-03T02:09:48;20.00;99.90
4964;DHT22;2497;47.410;9.740;2022-08-03T02:12:17;19.90;99.90
4964;DHT22;2497;47.410;9.740;2022-08-03T02:14:46;19.90;99.90
4964;DHT22;2497;47.410;9.740;2022-08-03T02:17:15;19.90;99.90
4964;DHT22;2497;47.410;9.740;2022-08-03T02:19:44;19.90;99.90
4964;DHT22;2497;47.410;9.740;2022-08-03T02:22:13;19.90;99.90
4964;DHT22;2497;47.410;9.740;2022-08-03T02:24:41;20.00;99.90
4964;DHT22;2497;47.410;9.740;2022-08-03T02:27:13;19.90;99.90
4964;DHT22;2497;47.410;9.740;2022-08-03T02:29:47;19.90;99.90
4964;DHT22;2497;47.410;9.740;2022-08-03T02:32:18;19.80;99.90
4964;DHT22;2497;47.410;9.740;2022-08-03T02:34:50;19.70;99.90
4964;DHT22;2497;47.410;9.740;2022-08-03T02:37:18;19.60;99.90
4964;DHT22;2497;47.410;9.740;2022-08-03T02:39:48;19.50;99.90
4964;DHT22;2497;47.410;9.740;2022-08-03T02:42:20;19.50;99.90
4964;DHT22;2497;47.410;9.740;2022-08-03T02:44:49;19.50;99.90
4964;DHT22;2497;47.410;9.740;2022-08-03T02:47:18;19.50;99.90
4964;DHT22;2497;47.410;9.740;2022-08-03T02:49:49;19.60;99.90
4964;DHT22;2497;47.410;9.740;2022-08-03T02:52:17;19.50;99.90
4964;DHT22;2497;47.410;9.740;2022-08-03T02:54:47;19.50;99.90
4964;DHT22;2497;47.410;9.740;2022-08-03T02:57:15;19.50;99.90
4964;DHT22;2497;47.410;9.740;2022-08-03T02:59:44;19.40;99.90
4964;DHT22;2497;47.410;9.740;2022-08-03T03:02:13;19.30;99.90
4964;DHT22;2497;47.410;9.740;2022-08-03T03:04:41;19.30;99.90
4964;DHT22;2497;47.410;9.740;2022-08-03T03:07:12;19.30;99.90
4964;DHT22;2497;47.410;9.740;2022-08-03T03:09:39;19.40;99.90
4964;DHT22;2497;47.410;9.740;2022-08-03T03:12:09;19.40;99.90
4964;DHT22;2497;47.410;9.740;2022-08-03T03:14:37;19.50;99.90
4964;DHT22;2497;47.410;9.740;2022-08-03T03:17:07;19.50;99.90
4964;DHT22;2497;47.410;9.740;2022-08-03T03:19:36;19.40;99.90
4964;DHT22;2497;47.410;9.740;2022-08-03T03:22:05;19.40;99.90
4964;DHT22;2497;47.410;9.740;2022-08-03T03:24:35;19.50;99.90
4964;DHT22;2497;47.410;9.740;2022-08-03T03:27:04;19.50;99.90
4964;DHT22;2497;47.410;9.740;2022-08-03T03:29:35;19.50;99.90
4964;DHT22;2497;47.410;9.740;2022-08-03T03:32:03;19.40;99.90
4964;DHT22;2497;47.410;9.740;2022-08-03T03:34:32;19.40;99.90
4964;DHT22;2497;47.410;9.740;2022-08-03T03:37:00;19.40;99.90
4964;DHT22;2497;47.410;9.740;2022-08-03T03:39:28;19.40;99.90
4964;DHT22;2497;47.410;9.740;2022-08-03T03:41:57;19.40;99.90
4964;DHT22;2497;47.410;9.740;2022-08-03T03:44:26;19.40;99.90
4964;DHT22;2497;47.410;9.740;2022-08-03T03:46:54;19.40;99.90
4964;DHT22;2497;47.410;9.740;2022-08-03T03:49:22;19.40;99.90
4964;DHT22;2497;47.410;9.740;2022-08-03T03:51:51;19.40;99.90
4964;DHT22;2497;47.410;9.740;2022-08-03T03:54:19;19.40;99.90
4964;DHT22;2497;47.410;9.740;2022-08-03T03:56:47;19.40;99.90
4964;DHT22;2497;47.410;9.740;2022-08-03T03:59:15;19.50;99.90
4964;DHT22;2497;47.410;9.740;2022-08-03T04:01:42;19.40;99.90
4964;DHT22;2497;47.410;9.740;2022-08-03T04:04:10;19.40;99.90
4964;DHT22;2497;47.410;9.740;2022-08-03T04:06:55;19.30;99.90
4964;DHT22;2497;47.410;9.740;2022-08-03T04:09:40;19.30;99.90
4964;DHT22;2497;47.410;9.740;2022-08-03T04:12:27;19.20;99.90
4964;DHT22;2497;47.410;9.740;2022-08-03T04:14:58;19.10;99.90
4964;DHT22;2497;47.410;9.740;2022-08-03T04:17:27;19.20;99.90
4964;DHT22;2497;47.410;9.740;2022-08-03T04:19:56;19.20;99.90
4964;DHT22;2497;47.410;9.740;2022-08-03T04:22:26;19.10;99.90
4964;DHT22;2497;47.410;9.740;2022-08-03T04:25:00;19.00;99.90
4964;DHT22;2497;47.410;9.740;2022-08-03T04:27:33;19.10;99.90
4964;DHT22;2497;47.410;9.740;2022-08-03T04:30:05;19.00;99.90
4964;DHT22;2497;47.410;9.740;2022-08-03T04:32:33;18.90;99.90
4964;DHT22;2497;47.410;9.740;2022-08-03T04:35:02;18.90;99.90
4964;DHT22;2497;47.410;9.740;2022-08-03T04:37:39;18.90;99.90
4964;DHT22;2497;47.410;9.740;2022-08-03T04:40:19;18.90;99.90
4964;DHT22;2497;47.410;9.740;2022-08-03T04:42:48;19.00;99.90
4964;DHT22;2497;47.410;9.740;2022-08-03T04:45:18;18.90;99.90
4964;DHT22;2497;47.410;9.740;2022-08-03T04:47:46;18.90;99.90
4964;DHT22;2497;47.410;9.740;2022-08-03T04:50:15;18.70;99.90
4964;DHT22;2497;47.410;9.740;2022-08-03T05:10:06;18.50;99.90
4964;DHT22;2497;47.410;9.740;2022-08-03T05:13:11;18.50;99.90
4964;DHT22;2497;47.410;9.740;2022-08-03T05:15:55;18.50;99.90
4964;DHT22;2497;47.410;9.740;2022-08-03T05:18:38;18.50;99.90
4964;DHT22;2497;47.410;9.740;2022-08-03T05:21:46;18.50;99.90
4964;DHT22;2497;47.410;9.740;2022-08-03T05:28:25;18.50;99.90
4964;DHT22;2497;47.410;9.740;2022-08-03T05:31:39;18.70;99.90
4964;DHT22;2497;47.410;9.740;2022-08-03T05:37:39;18.80;99.90
4964;DHT22;2497;47.410;9.740;2022-08-03T05:40:08;19.00;99.90
4964;DHT22;2497;47.410;9.740;2022-08-03T05:42:37;19.00;99.90
4964;DHT22;2497;47.410;9.740;2022-08-03T05:45:08;19.00;99.90
4964;DHT22;2497;47.410;9.740;2022-08-03T05:47:43;19.20;99.90
4964;DHT22;2497;47.410;9.740;2022-08-03T05:50:11;19.40;99.90
4964;DHT22;2497;47.410;9.740;2022-08-03T05:52:40;19.40;99.90
4964;DHT22;2497;47.410;9.740;2022-08-03T05:55:14;19.50;99.90
4964;DHT22;2497;47.410;9.740;2022-08-03T05:57:47;19.60;99.90
4964;DHT22;2497;47.410;9.740;2022-08-03T06:00:39;19.70;99.90
4964;DHT22;2497;47.410;9.740;2022-08-03T06:03:21;19.80;99.90
4964;DHT22;2497;47.410;9.740;2022-08-03T06:13:46;20.20;99.90
4964;DHT22;2497;47.410;9.740;2022-08-03T06:16:57;20.30;99.90
4964;DHT22;2497;47.410;9.740;2022-08-03T06:26:17;20.50;99.90
4964;DHT22;2497;47.410;9.740;2022-08-03T06:44:08;21.20;99.90
4964;DHT22;2497;47.410;9.740;2022-08-03T06:46:35;21.30;99.90
4964;DHT22;2497;47.410;9.740;2022-08-03T06:49:03;21.40;99.90
4964;DHT22;2497;47.410;9.740;2022-08-03T06:51:30;21.60;99.90
4964;DHT22;2497;47.410;9.740;2022-08-03T06:53:58;21.80;99.90
4964;DHT22;2497;47.410;9.740;2022-08-03T06:56:25;21.90;99.90
4964;DHT22;2497;47.410;9.740;2022-08-03T06:58:52;22.10;99.90
4964;DHT22;2497;47.410;9.740;2022-08-03T07:01:21;22.20;99.90
4964;DHT22;2497;47.410;9.740;2022-08-03T07:03:49;22.30;99.90
4964;DHT22;2497;47.410;9.740;2022-08-03T07:06:16;22.40;99.90
4964;DHT22;2497;47.410;9.740;2022-08-03T07:08:43;22.60;99.90
4964;DHT22;2497;47.410;9.740;2022-08-03T07:11:11;22.70;99.90
4964;DHT22;2497;47.410;9.740;2022-08-03T07:13:38;22.80;99.90
4964;DHT22;2497;47.410;9.740;2022-08-03T07:16:06;22.90;99.90
4964;DHT22;2497;47.410;9.740;2022-08-03T07:18:38;23.10;99.90
4964;DHT22;2497;47.410;9.740;2022-08-03T07:21:05;23.40;99.90
4964;DHT22;2497;47.410;9.740;2022-08-03T07:23:35;23.60;99.90
4964;DHT22;2497;47.410;9.740;2022-08-03T07:26:03;23.80;99.90
4964;DHT22;2497;47.410;9.740;2022-08-03T07:28:31;23.90;99.90
4964;DHT22;2497;47.410;9.740;2022-08-03T07:30:58;24.10;99.90
4964;DHT22;2497;47.410;9.740;2022-08-03T07:33:26;24.50;99.90
4964;DHT22;2497;47.410;9.740;2022-08-03T07:35:56;24.50;99.90
4964;DHT22;2497;47.410;9.740;2022-08-03T07:38:23;24.70;99.90
4964;DHT22;2497;47.410;9.740;2022-08-03T07:40:50;24.80;99.90
4964;DHT22;2497;47.410;9.740;2022-08-03T07:43:19;25.20;99.90
4964;DHT22;2497;47.410;9.740;2022-08-03T07:45:46;25.10;99.90
4964;DHT22;2497;47.410;9.740;2022-08-03T07:48:14;25.10;99.90
4964;DHT22;2497;47.410;9.740;2022-08-03T07:50:42;25.30;99.90
4964;DHT22;2497;47.410;9.740;2022-08-03T07:53:11;25.60;99.90
4964;DHT22;2497;47.410;9.740;2022-08-03T07:55:38;25.90;99.90
4964;DHT22;2497;47.410;9.740;2022-08-03T07:58:08;26.00;99.90
4964;DHT22;2497;47.410;9.740;2022-08-03T08:00:37;26.20;99.90
4964;DHT22;2497;47.410;9.740;2022-08-03T08:03:04;26.30;99.90
4964;DHT22;2497;47.410;9.740;2022-08-03T08:05:32;26.70;99.90
4964;DHT22;2497;47.410;9.740;2022-08-03T08:07:59;26.90;99.90
4964;DHT22;2497;47.410;9.740;2022-08-03T08:10:28;28.30;99.90
4964;DHT22;2497;47.410;9.740;2022-08-03T08:12:57;27.80;99.90
4964;DHT22;2497;47.410;9.740;2022-08-03T08:15:25;27.60;99.90
4964;DHT22;2497;47.410;9.740;2022-08-03T08:17:53;27.80;99.90
4964;DHT22;2497;47.410;9.740;2022-08-03T08:20:26;28.20;99.90
4964;DHT22;2497;47.410;9.740;2022-08-03T08:22:55;28.30;99.90
4964;DHT22;2497;47.410;9.740;2022-08-03T08:25:24;28.30;99.90
4964;DHT22;2497;47.410;9.740;2022-08-03T08:27:53;28.20;99.90
4964;DHT22;2497;47.410;9.740;2022-08-03T08:30:21;28.30;99.90
4964;DHT22;2497;47.410;9.740;2022-08-03T08:32:50;28.20;99.90
4964;DHT22;2497;47.410;9.740;2022-08-03T08:35:17;28.70;99.90
4964;DHT22;2497;47.410;9.740;2022-08-03T08:37:45;28.60;99.90
4964;DHT22;2497;47.410;9.740;2022-08-03T08:40:13;28.90;99.90
4964;DHT22;2497;47.410;9.740;2022-08-03T08:42:41;28.50;99.90
4964;DHT22;2497;47.410;9.740;2022-08-03T08:45:11;28.70;99.90
4964;DHT22;2497;47.410;9.740;2022-08-03T08:47:44;29.00;99.90
4964;DHT22;2497;47.410;9.740;2022-08-03T08:50:13;30.00;99.90
4964;DHT22;2497;47.410;9.740;2022-08-03T08:52:40;31.00;99.90
4964;DHT22;2497;47.410;9.740;2022-08-03T08:55:10;30.50;99.90
4964;DHT22;2497;47.410;9.740;2022-08-03T08:57:44;30.50;99.90
4964;DHT22;2497;47.410;9.740;2022-08-03T09:00:16;31.00;99.90
4964;DHT22;2497;47.410;9.740;2022-08-03T09:02:44;30.80;99.90
4964;DHT22;2497;47.410;9.740;2022-08-03T09:05:13;30.60;99.90
4964;DHT22;2497;47.410;9.740;2022-08-03T09:07:41;30.70;99.90
4964;DHT22;2497;47.410;9.740;2022-08-03T09:10:10;30.20;99.90
4964;DHT22;2497;47.410;9.740;2022-08-03T09:12:38;29.80;99.90
4964;DHT22;2497;47.410;9.740;2022-08-03T09:15:24;29.40;99.90
4964;DHT22;2497;47.410;9.740;2022-08-03T09:17:57;29.60;99.90
4964;DHT22;2497;47.410;9.740;2022-08-03T09:20:27;29.50;99.90
4964;DHT22;2497;47.410;9.740;2022-08-03T09:22:57;29.30;99.90
4964;DHT22;2497;47.410;9.740;2022-08-03T09:25:29;29.80;99.90
4964;DHT22;2497;47.410;9.740;2022-08-03T09:28:05;30.50;99.90
4964;DHT22;2497;47.410;9.740;2022-08-03T09:30:38;31.30;99.90
4964;DHT22;2497;47.410;9.740;2022-08-03T09:33:08;31.30;99.90
4964;DHT22;2497;47.410;9.740;2022-08-03T09:35:41;31.00;99.90
4964;DHT22;2497;47.410;9.740;2022-08-03T09:38:10;31.50;99.90
4964;DHT22;2497;47.410;9.740;2022-08-03T09:40:38;31.30;99.90
4964;DHT22;2497;47.410;9.740;2022-08-03T09:43:06;30.80;99.90
4964;DHT22;2497;47.410;9.740;2022-08-03T09:45:35;31.80;99.90
4964;DHT22;2497;47.410;9.740;2022-08-03T09:48:23;32.60;99.90
4964;DHT22;2497;47.410;9.740;2022-08-03T09:50:52;32.30;99.90
4964;DHT22;2497;47.410;9.740;2022-08-03T09:53:20;31.90;99.90
4964;DHT22;2497;47.410;9.740;2022-08-03T09:55:56;31.60;99.90
4964;DHT22;2497;47.410;9.740;2022-08-03T09:58:24;31.30;99.90
4964;DHT22;2497;47.410;9.740;2022-08-03T10:01:01;31.20;99.90
4964;DHT22;2497;47.410;9.740;2022-08-03T10:03:31;30.80;99.90
4964;DHT22;2497;47.410;9.740;2022-08-03T10:06:13;31.10;99.90
4964;DHT22;2497;47.410;9.740;2022-08-03T10:08:41;31.80;99.90
4964;DHT22;2497;47.410;9.740;2022-08-03T10:11:54;31.60;99.90
4964;DHT22;2497;47.410;9.740;2022-08-03T10:14:26;31.60;99.90
4964;DHT22;2497;47.410;9.740;2022-08-03T10:17:01;31.60;99.90
4964;DHT22;2497;47.410;9.740;2022-08-03T10:19:28;31.70;99.90
4964;DHT22;2497;47.410;9.740;2022-08-03T10:22:01;31.40;99.90
4964;DHT22;2497;47.410;9.740;2022-08-03T10:24:29;31.80;99.90
4964;DHT22;2497;47.410;9.740;2022-08-03T10:27:02;31.70;99.90
4964;DHT22;2497;47.410;9.740;2022-08-03T10:29:36;32.10;99.90
4964;DHT22;2497;47.410;9.740;2022-08-03T10:32:09;32.30;99.90
4964;DHT22;2497;47.410;9.740;2022-08-03T10:34:40;32.50;99.90
4964;DHT22;2497;47.410;9.740;2022-08-03T10:37:10;33.00;99.90
4964;DHT22;2497;47.410;9.740;2022-08-03T10:39:39;32.80;99.90
4964;DHT22;2497;47.410;9.740;2022-08-03T10:42:22;33.10;99.90
4964;DHT22;2497;47.410;9.740;2022-08-03T10:44:55;32.80;99.90
4964;DHT22;2497;47.410;9.740;2022-08-03T10:47:29;33.70;99.90
4964;DHT22;2497;47.410;9.740;2022-08-03T10:49:56;33.30;99.90
4964;DHT22;2497;47.410;9.740;2022-08-03T10:52:24;33.10;99.90
4964;DHT22;2497;47.410;9.740;2022-08-03T10:54:52;33.20;99.90
4964;DHT22;2497;47.410;9.740;2022-08-03T10:57:48;33.20;99.90
4964;DHT22;2497;47.410;9.740;2022-08-03T11:00:17;32.80;99.90
4964;DHT22;2497;47.410;9.740;2022-08-03T11:03:04;32.80;99.90
4964;DHT22;2497;47.410;9.740;2022-08-03T11:05:34;32.90;99.90
4964;DHT22;2497;47.410;9.740;2022-08-03T11:08:21;32.90;99.90
4964;DHT22;2497;47.410;9.740;2022-08-03T11:10:50;32.80;99.90
4964;DHT22;2497;47.410;9.740;2022-08-03T11:13:19;32.70;99.90
4964;DHT22;2497;47.410;9.740;2022-08-03T11:15:48;33.00;99.90
4964;DHT22;2497;47.410;9.740;2022-08-03T11:18:18;33.10;99.90
4964;DHT22;2497;47.410;9.740;2022-08-03T11:20:47;32.80;99.90
4964;DHT22;2497;47.410;9.740;2022-08-03T11:23:15;32.80;99.90
4964;DHT22;2497;47.410;9.740;2022-08-03T11:26:07;33.00;99.90
4964;DHT22;2497;47.410;9.740;2022-08-03T11:28:35;33.20;99.90
4964;DHT22;2497;47.410;9.740;2022-08-03T11:31:44;33.10;99.90
4964;DHT22;2497;47.410;9.740;2022-08-03T11:34:15;33.60;99.90
4964;DHT22;2497;47.410;9.740;2022-08-03T11:37:20;33.40;99.90
4964;DHT22;2497;47.410;9.740;2022-08-03T11:39:50;33.70;99.90
4964;DHT22;2497;47.410;9.740;2022-08-03T11:42:38;34.00;99.90
4964;DHT22;2497;47.410;9.740;2022-08-03T11:45:07;33.90;99.90
4964;DHT22;2497;47.410;9.740;2022-08-03T11:47:37;33.90;99.90
4964;DHT22;2497;47.410;9.740;2022-08-03T11:50:07;33.70;99.90
4964;DHT22;2497;47.410;9.740;2022-08-03T11:52:37;33.70;99.90
4964;DHT22;2497;47.410;9.740;2022-08-03T11:55:09;33.50;99.90
4964;DHT22;2497;47.410;9.740;2022-08-03T11:57:37;33.60;99.90
4964;DHT22;2497;47.410;9.740;2022-08-03T12:00:19;33.80;99.90
4964;DHT22;2497;47.410;9.740;2022-08-03T12:03:01;33.40;99.90
4964;DHT22;2497;47.410;9.740;2022-08-03T12:05:39;33.10;99.90
4964;DHT22;2497;47.410;9.740;2022-08-03T12:08:08;33.30;99.90
4964;DHT22;2497;47.410;9.740;2022-08-03T12:10:36;33.10;99.90
4964;DHT22;2497;47.410;9.740;2022-08-03T12:13:05;33.60;99.90
4964;DHT22;2497;47.410;9.740;2022-08-03T12:15:34;33.70;99.90
4964;DHT22;2497;47.410;9.740;2022-08-03T12:18:03;33.70;99.90
4964;DHT22;2497;47.410;9.740;2022-08-03T12:20:41;33.60;99.90
4964;DHT22;2497;47.410;9.740;2022-08-03T12:23:09;33.40;99.90
4964;DHT22;2497;47.410;9.740;2022-08-03T12:25:39;33.40;99.90
4964;DHT22;2497;47.410;9.740;2022-08-03T12:28:12;33.60;99.90
4964;DHT22;2497;47.410;9.740;2022-08-03T12:30:43;33.60;99.90
4964;DHT22;2497;47.410;9.740;2022-08-03T12:33:16;33.60;99.90
4964;DHT22;2497;47.410;9.740;2022-08-03T12:35:47;33.60;99.90
4964;DHT22;2497;47.410;9.740;2022-08-03T12:38:19;33.60;99.90
4964;DHT22;2497;47.410;9.740;2022-08-03T12:40:58;33.50;99.90
4964;DHT22;2497;47.410;9.740;2022-08-03T12:43:25;33.50;99.90
4964;DHT22;2497;47.410;9.740;2022-08-03T12:46:10;33.20;99.90
4964;DHT22;2497;47.410;9.740;2022-08-03T12:51:57;33.00;99.90
4964;DHT22;2497;47.410;9.740;2022-08-03T12:54:26;32.90;99.90
4964;DHT22;2497;47.410;9.740;2022-08-03T12:56:59;33.00;99.90
4964;DHT22;2497;47.410;9.740;2022-08-03T12:59:28;33.10;99.90
4964;DHT22;2497;47.410;9.740;2022-08-03T13:01:56;33.30;99.90
4964;DHT22;2497;47.410;9.740;2022-08-03T13:04:25;33.30;99.90
4964;DHT22;2497;47.410;9.740;2022-08-03T13:06:58;33.40;99.90
4964;DHT22;2497;47.410;9.740;2022-08-03T13:09:26;33.40;99.90
4964;DHT22;2497;47.410;9.740;2022-08-03T13:12:07;33.30;99.90
4964;DHT22;2497;47.410;9.740;2022-08-03T13:14:35;33.10;99.90
4964;DHT22;2497;47.410;9.740;2022-08-03T13:17:04;33.30;99.90
4964;DHT22;2497;47.410;9.740;2022-08-03T13:19:32;33.30;99.90
4964;DHT22;2497;47.410;9.740;2022-08-03T13:22:09;33.40;99.90
4964;DHT22;2497;47.410;9.740;2022-08-03T13:24:37;33.60;99.90
4964;DHT22;2497;47.410;9.740;2022-08-03T13:27:04;33.70;99.90
4964;DHT22;2497;47.410;9.740;2022-08-03T13:29:32;33.60;99.90
4964;DHT22;2497;47.410;9.740;2022-08-03T13:31:59;33.60;99.90
4964;DHT22;2497;47.410;9.740;2022-08-03T13:34:27;33.50;99.90
4964;DHT22;2497;47.410;9.740;2022-08-03T13:36:55;33.40;99.90
4964;DHT22;2497;47.410;9.740;2022-08-03T13:39:24;33.50;99.90
4964;DHT22;2497;47.410;9.740;2022-08-03T13:41:52;33.30;99.90
4964;DHT22;2497;47.410;9.740;2022-08-03T13:44:19;33.20;99.90
4964;DHT22;2497;47.410;9.740;2022-08-03T13:46:47;33.30;99.90
4964;DHT22;2497;47.410;9.740;2022-08-03T13:49:15;33.30;99.90
4964;DHT22;2497;47.410;9.740;2022-08-03T13:51:42;33.30;99.90
4964;DHT22;2497;47.410;9.740;2022-08-03T13:54:10;33.50;99.90
4964;DHT22;2497;47.410;9.740;2022-08-03T13:56:38;33.60;99.90
4964;DHT22;2497;47.410;9.740;2022-08-03T13:59:06;33.60;99.90
4964;DHT22;2497;47.410;9.740;2022-08-03T14:01:35;33.60;99.90
4964;DHT22;2497;47.410;9.740;2022-08-03T14:04:03;33.80;99.90
4964;DHT22;2497;47.410;9.740;2022-08-03T14:06:31;33.80;99.90
4964;DHT22;2497;47.410;9.740;2022-08-03T14:08:58;33.80;99.90
4964;DHT22;2497;47.410;9.740;2022-08-03T14:11:27;33.90;99.90
4964;DHT22;2497;47.410;9.740;2022-08-03T14:13:56;33.80;99.90
4964;DHT22;2497;47.410;9.740;2022-08-03T14:16:24;33.60;99.90
4964;DHT22;2497;47.410;9.740;2022-08-03T14:18:51;33.70;99.90
4964;DHT22;2497;47.410;9.740;2022-08-03T14:21:19;33.60;99.90
4964;DHT22;2497;47.410;9.740;2022-08-03T14:23:46;33.90;99.90
4964;DHT22;2497;47.410;9.740;2022-08-03T14:26:13;33.90;99.90
4964;DHT22;2497;47.410;9.740;2022-08-03T14:28:43;34.00;99.90
4964;DHT22;2497;47.410;9.740;2022-08-03T14:31:12;33.90;99.90
4964;DHT22;2497;47.410;9.740;2022-08-03T14:33:39;33.70;99.90
4964;DHT22;2497;47.410;9.740;2022-08-03T14:36:07;33.60;99.90
4964;DHT22;2497;47.410;9.740;2022-08-03T14:38:34;33.50;99.90
4964;DHT22;2497;47.410;9.740;2022-08-03T14:41:02;33.40;99.90
4964;DHT22;2497;47.410;9.740;2022-08-03T14:43:29;33.60;99.90
4964;DHT22;2497;47.410;9.740;2022-08-03T14:45:56;33.80;99.90
4964;DHT22;2497;47.410;9.740;2022-08-03T14:48:26;33.80;99.90
4964;DHT22;2497;47.410;9.740;2022-08-03T14:50:53;33.90;99.90
4964;DHT22;2497;47.410;9.740;2022-08-03T14:53:22;33.90;99.90
4964;DHT22;2497;47.410;9.740;2022-08-03T14:55:49;34.10;99.90
4964;DHT22;2497;47.410;9.740;2022-08-03T14:58:18;34.10;99.90
4964;DHT22;2497;47.410;9.740;2022-08-03T15:00:45;34.20;99.90
4964;DHT22;2497;47.410;9.740;2022-08-03T15:03:13;34.20;99.90
4964;DHT22;2497;47.410;9.740;2022-08-03T15:05:42;33.80;99.90
4964;DHT22;2497;47.410;9.740;2022-08-03T15:08:09;33.80;99.90
4964;DHT22;2497;47.410;9.740;2022-08-03T15:10:37;33.60;99.90
4964;DHT22;2497;47.410;9.740;2022-08-03T15:13:04;33.40;99.90
4964;DHT22;2497;47.410;9.740;2022-08-03T15:15:32;33.20;99.90
4964;DHT22;2497;47.410;9.740;2022-08-03T15:17:59;33.00;99.90
4964;DHT22;2497;47.410;9.740;2022-08-03T15:20:27;32.50;99.90
4964;DHT22;2497;47.410;9.740;2022-08-03T15:22:56;32.30;99.90
4964;DHT22;2497;47.410;9.740;2022-08-03T15:25:23;32.20;99.90
4964;DHT22;2497;47.410;9.740;2022-08-03T15:27:51;31.90;99.90
4964;DHT22;2497;47.410;9.740;2022-08-03T15:30:19;31.80;99.90
4964;DHT22;2497;47.410;9.740;2022-08-03T15:32:46;31.80;99.90
4964;DHT22;2497;47.410;9.740;2022-08-03T15:35:13;31.60;99.90
4964;DHT22;2497;47.410;9.740;2022-08-03T15:37:41;31.60;99.90
4964;DHT22;2497;47.410;9.740;2022-08-03T15:40:12;31.60;99.90
4964;DHT22;2497;47.410;9.740;2022-08-03T15:42:39;31.60;99.90
4964;DHT22;2497;47.410;9.740;2022-08-03T15:45:07;31.40;99.90
4964;DHT22;2497;47.410;9.740;2022-08-03T15:47:38;31.10;99.90
4964;DHT22;2497;47.410;9.740;2022-08-03T15:50:06;31.00;99.90
4964;DHT22;2497;47.410;9.740;2022-08-03T15:52:33;30.90;99.90
4964;DHT22;2497;47.410;9.740;2022-08-03T15:55:01;30.70;99.90
4964;DHT22;2497;47.410;9.740;2022-08-03T15:57:30;30.50;99.90
4964;DHT22;2497;47.410;9.740;2022-08-03T15:59:58;30.40;99.90
4964;DHT22;2497;47.410;9.740;2022-08-03T16:02:25;30.40;99.90
4964;DHT22;2497;47.410;9.740;2022-08-03T16:04:53;30.30;99.90
4964;DHT22;2497;47.410;9.740;2022-08-03T16:07:20;30.10;99.90
4964;DHT22;2497;47.410;9.740;2022-08-03T16:10:01;30.20;99.90
4964;DHT22;2497;47.410;9.740;2022-08-03T16:12:31;30.10;99.90
4964;DHT22;2497;47.410;9.740;2022-08-03T16:14:59;30.00;99.90
4964;DHT22;2497;47.410;9.740;2022-08-03T16:17:27;30.10;99.90
4964;DHT22;2497;47.410;9.740;2022-08-03T16:19:54;30.10;99.90
4964;DHT22;2497;47.410;9.740;2022-08-03T16:22:24;30.00;99.90
4964;DHT22;2497;47.410;9.740;2022-08-03T16:24:52;30.00;99.90
4964;DHT22;2497;47.410;9.740;2022-08-03T16:27:20;29.80;99.90
4964;DHT22;2497;47.410;9.740;2022-08-03T16:29:50;29.90;99.90
4964;DHT22;2497;47.410;9.740;2022-08-03T16:32:17;29.80;99.90
4964;DHT22;2497;47.410;9.740;2022-08-03T16:34:44;29.70;99.90
4964;DHT22;2497;47.410;9.740;2022-08-03T16:37:12;29.70;99.90
4964;DHT22;2497;47.410;9.740;2022-08-03T16:39:40;29.60;99.90
4964;DHT22;2497;47.410;9.740;2022-08-03T16:42:07;29.50;99.90
4964;DHT22;2497;47.410;9.740;2022-08-03T16:44:35;29.50;99.90
4964;DHT22;2497;47.410;9.740;2022-08-03T16:47:04;29.40;99.90
4964;DHT22;2497;47.410;9.740;2022-08-03T16:49:32;29.40;99.90
4964;DHT22;2497;47.410;9.740;2022-08-03T16:51:59;29.40;99.90
4964;DHT22;2497;47.410;9.740;2022-08-03T16:54:27;29.40;99.90
4964;DHT22;2497;47.410;9.740;2022-08-03T16:56:55;29.40;99.90
4964;DHT22;2497;47.410;9.740;2022-08-03T16:59:22;29.40;99.90
4964;DHT22;2497;47.410;9.740;2022-08-03T17:01:49;29.50;99.90
4964;DHT22;2497;47.410;9.740;2022-08-03T17:04:19;29.50;99.90
4964;DHT22;2497;47.410;9.740;2022-08-03T17:06:46;29.40;99.90
4964;DHT22;2497;47.410;9.740;2022-08-03T17:09:15;29.20;99.90
4964;DHT22;2497;47.410;9.740;2022-08-03T17:11:45;29.20;99.90
4964;DHT22;2497;47.410;9.740;2022-08-03T17:14:14;29.10;99.90
4964;DHT22;2497;47.410;9.740;2022-08-03T17:16:43;29.00;99.90
4964;DHT22;2497;47.410;9.740;2022-08-03T17:19:11;28.90;99.90
4964;DHT22;2497;47.410;9.740;2022-08-03T17:21:45;28.90;99.90
4964;DHT22;2497;47.410;9.740;2022-08-03T17:24:16;28.80;99.90